createdAt,value
2019-01-24T00:00:19.150Z,62.55
2019-01-24T00:02:48.485Z,63.40
2019-01-24T00:05:17.495Z,62.03
2019-01-24T00:07:46.475Z,62.03
2019-01-24T00:10:15.457Z,63.30
2019-01-24T00:12:44.517Z,61.70
2019-01-24T00:15:13.507Z,66.20
2019-01-24T00:17:42.505Z,63.23
2019-01-24T00:20:12.384Z,59.30
2019-01-24T00:22:41.373Z,64.12
2019-01-24T00:25:10.357Z,61.68
2019-01-24T00:27:39.379Z,60.60
2019-01-24T00:30:12.406Z,60.55
2019-01-24T00:32:41.425Z,62.65
2019-01-24T00:35:10.483Z,59.38
2019-01-24T00:37:39.470Z,59.48
2019-01-24T00:40:13.298Z,61.50
2019-01-24T00:42:42.336Z,58.92
2019-01-24T00:45:11.351Z,61.90
2019-01-24T00:47:40.337Z,58.15
2019-01-24T00:50:10.590Z,57.88
2019-01-24T00:52:39.597Z,59.93
2019-01-24T00:55:09.943Z,58.83
2019-01-24T00:57:38.946Z,59.23
2019-01-24T01:00:15.769Z,57.78
2019-01-24T01:02:44.783Z,57.60
2019-01-24T01:05:13.762Z,54.45
2019-01-24T01:07:42.755Z,56.25
2019-01-24T01:10:12.082Z,59.10
2019-01-24T01:12:41.163Z,57.17
2019-01-24T01:15:11.389Z,54.77
2019-01-24T01:17:40.379Z,58.20
2019-01-24T01:20:10.825Z,60.60
2019-01-24T01:22:39.821Z,55.83
2019-01-24T01:25:09.745Z,60.55
2019-01-24T01:27:38.749Z,59.05
2019-01-24T01:30:09.384Z,60.80
2019-01-24T01:32:38.364Z,61.40
2019-01-24T01:35:07.517Z,58.92
2019-01-24T01:37:36.510Z,58.70
2019-01-24T01:40:07.296Z,56.63
2019-01-24T01:42:36.264Z,58.08
2019-01-24T01:45:06.646Z,51.00
2019-01-24T01:47:35.662Z,58.17
2019-01-24T01:50:06.254Z,54.53
2019-01-24T01:52:35.272Z,57.53
2019-01-24T01:55:04.893Z,57.20
2019-01-24T01:57:33.885Z,60.78
2019-01-24T02:00:02.903Z,58.15
2019-01-24T02:02:31.942Z,56.53
2019-01-24T02:05:00.999Z,55.05
2019-01-24T02:07:29.981Z,55.52
2019-01-24T02:09:58.980Z,56.18
2019-01-24T02:12:27.977Z,54.30
2019-01-24T02:14:56.973Z,54.67
2019-01-24T02:17:25.953Z,54.20
2019-01-24T02:19:54.961Z,51.48
2019-01-24T02:22:23.943Z,56.40
2019-01-24T02:24:52.929Z,50.70
2019-01-24T02:27:21.945Z,50.50
2019-01-24T02:29:50.914Z,51.18
2019-01-24T02:32:19.922Z,53.05
2019-01-24T02:34:49.818Z,51.65
2019-01-24T02:37:18.941Z,51.02
2019-01-24T02:39:47.960Z,55.50
2019-01-24T02:42:16.916Z,50.80
2019-01-24T02:44:45.937Z,47.62
2019-01-24T02:47:14.917Z,49.08
2019-01-24T02:49:44.974Z,53.70
2019-01-24T02:52:13.956Z,49.38
2019-01-24T02:54:42.934Z,48.70
2019-01-24T02:57:11.921Z,55.43
2019-01-24T02:59:40.957Z,50.55
2019-01-24T03:02:09.939Z,51.65
2019-01-24T03:04:38.953Z,48.83
2019-01-24T03:07:07.928Z,48.95
2019-01-24T03:09:36.910Z,51.02
2019-01-24T03:12:06.597Z,50.88
2019-01-24T03:14:35.672Z,50.65
2019-01-24T03:17:04.680Z,49.25
2019-01-24T03:19:33.644Z,48.50
2019-01-24T03:22:02.655Z,47.08
2019-01-24T03:24:31.647Z,47.50
2019-01-24T03:27:00.680Z,54.75
2019-01-24T03:29:29.656Z,51.75
2019-01-24T03:31:58.645Z,50.40
2019-01-24T03:34:27.629Z,49.48
2019-01-24T03:36:56.635Z,49.45
2019-01-24T03:39:25.591Z,49.98
2019-01-24T03:41:54.596Z,53.33
2019-01-24T03:44:23.559Z,48.17
2019-01-24T03:46:52.554Z,50.45
2019-01-24T03:49:21.543Z,54.90
2019-01-24T03:51:50.529Z,52.55
2019-01-24T03:54:19.542Z,53.33
2019-01-24T03:56:48.553Z,53.85
2019-01-24T03:59:17.539Z,57.13
2019-01-24T04:01:46.548Z,62.80
2019-01-24T04:04:15.503Z,56.95
2019-01-24T04:06:44.503Z,53.48
2019-01-24T04:09:13.512Z,53.55
2019-01-24T04:11:42.501Z,55.98
2019-01-24T04:14:11.471Z,52.43
2019-01-24T04:16:40.489Z,56.68
2019-01-24T04:19:09.479Z,51.85
2019-01-24T04:21:38.508Z,51.30
2019-01-24T04:24:07.495Z,53.95
2019-01-24T04:26:36.478Z,52.13
2019-01-24T04:29:05.495Z,52.65
2019-01-24T04:31:34.497Z,51.90
2019-01-24T04:34:03.505Z,51.98
2019-01-24T04:36:32.512Z,49.42
2019-01-24T04:39:01.507Z,50.08
2019-01-24T04:41:31.867Z,53.78
2019-01-24T04:44:00.843Z,50.48
2019-01-24T04:46:29.809Z,51.20
2019-01-24T04:48:58.833Z,50.70
2019-01-24T04:51:27.805Z,51.23
2019-01-24T04:53:56.810Z,49.80
2019-01-24T04:56:25.823Z,48.60
2019-01-24T04:58:54.812Z,52.62
2019-01-24T05:01:24.888Z,53.63
2019-01-24T05:03:53.886Z,53.42
2019-01-24T05:06:22.887Z,51.53
2019-01-24T05:08:51.899Z,47.00
2019-01-24T05:11:20.906Z,51.48
2019-01-24T05:13:49.897Z,53.42
2019-01-24T05:16:19.973Z,51.00
2019-01-24T05:18:48.966Z,55.98
2019-01-24T05:21:17.947Z,52.35
2019-01-24T05:23:46.942Z,50.25
2019-01-24T05:26:15.905Z,52.20
2019-01-24T05:28:44.917Z,49.58
2019-01-24T05:31:13.919Z,51.75
2019-01-24T05:33:42.901Z,49.33
2019-01-24T05:36:11.919Z,55.70
2019-01-24T05:38:40.866Z,53.30
2019-01-24T05:41:09.880Z,53.48
2019-01-24T05:43:38.859Z,55.30
2019-01-24T05:46:07.853Z,50.28
2019-01-24T05:48:36.867Z,54.75
2019-01-24T05:51:05.835Z,56.45
2019-01-24T05:53:34.841Z,53.45
2019-01-24T05:56:03.835Z,54.95
2019-01-24T05:58:32.826Z,57.65
2019-01-24T06:01:03.293Z,54.60
2019-01-24T06:03:32.249Z,55.60
2019-01-24T06:06:01.267Z,57.17
2019-01-24T06:08:30.248Z,57.73
2019-01-24T06:10:59.238Z,55.58
2019-01-24T06:13:29.132Z,56.75
2019-01-24T06:15:58.120Z,56.50
2019-01-24T06:18:27.108Z,58.02
2019-01-24T06:20:56.110Z,59.00
2019-01-24T06:23:25.078Z,58.63
2019-01-24T06:25:54.080Z,53.90
2019-01-24T06:28:23.063Z,56.42
2019-01-24T06:30:52.050Z,55.67
2019-01-24T06:33:21.064Z,52.80
2019-01-24T06:35:50.126Z,55.95
2019-01-24T06:38:19.111Z,55.55
2019-01-24T06:40:48.118Z,58.73
2019-01-24T06:43:17.080Z,54.80
2019-01-24T06:45:46.066Z,55.67
2019-01-24T06:48:15.052Z,53.08
2019-01-24T06:50:44.042Z,49.18
2019-01-24T06:53:13.031Z,52.83
2019-01-24T06:55:42.029Z,52.62
2019-01-24T06:58:10.988Z,51.55
2019-01-24T07:00:40.000Z,53.17
2019-01-24T07:03:08.957Z,53.48
2019-01-24T07:05:37.949Z,50.78
2019-01-24T07:08:06.933Z,52.93
2019-01-24T07:10:35.919Z,54.53
2019-01-24T07:13:04.901Z,54.73
2019-01-24T07:15:33.908Z,55.17
2019-01-24T07:18:02.902Z,50.90
2019-01-24T07:20:31.980Z,56.42
2019-01-24T07:23:00.966Z,55.83
2019-01-24T07:25:29.968Z,51.73
2019-01-24T07:27:58.951Z,54.27
2019-01-24T07:30:27.946Z,60.12
2019-01-24T07:32:56.941Z,55.15
2019-01-24T07:35:25.942Z,55.73
2019-01-24T07:37:54.901Z,51.35
2019-01-24T07:40:23.920Z,55.05
2019-01-24T07:42:52.875Z,50.78
2019-01-24T07:45:26.292Z,52.60
2019-01-24T07:47:55.303Z,54.23
2019-01-24T07:50:24.257Z,56.20
2019-01-24T07:52:53.289Z,57.78
2019-01-24T07:55:22.256Z,55.45
2019-01-24T07:57:51.244Z,54.05
2019-01-24T08:00:21.433Z,53.05
2019-01-24T08:02:50.383Z,60.33
2019-01-24T08:05:19.484Z,52.67
2019-01-24T08:07:48.458Z,54.77
2019-01-24T08:10:18.487Z,61.08
2019-01-24T08:12:47.497Z,60.25
2019-01-24T08:15:17.451Z,59.67
2019-01-24T08:17:46.448Z,56.08
2019-01-24T08:20:27.275Z,54.25
2019-01-24T08:22:56.307Z,56.35
2019-01-24T08:25:25.544Z,55.58
2019-01-24T08:27:55.148Z,61.20
2019-01-24T08:30:25.696Z,52.85
2019-01-24T08:32:55.091Z,57.10
2019-01-24T08:35:24.353Z,52.80
2019-01-24T08:37:53.543Z,57.88
2019-01-24T08:40:25.439Z,54.90
2019-01-24T08:42:54.483Z,56.00
2019-01-24T08:45:23.718Z,53.28
2019-01-24T08:47:52.914Z,55.30
2019-01-24T08:50:24.036Z,54.90
2019-01-24T08:52:53.108Z,52.48
2019-01-24T08:55:32.741Z,50.08
2019-01-24T08:58:01.807Z,54.00
2019-01-24T09:00:30.884Z,53.58
2019-01-24T09:03:00.101Z,52.98
2019-01-24T09:05:29.147Z,56.00
2019-01-24T09:07:58.256Z,53.23
2019-01-24T09:10:28.962Z,52.10
2019-01-24T09:12:57.969Z,55.95
2019-01-24T09:15:27.054Z,51.53
2019-01-24T09:17:56.018Z,54.48
2019-01-24T09:20:25.033Z,55.78
2019-01-24T09:22:55.269Z,54.33
2019-01-24T09:25:24.652Z,53.10
2019-01-24T09:27:53.801Z,55.92
2019-01-24T09:30:24.187Z,53.87
2019-01-24T09:32:53.320Z,53.60
2019-01-24T09:35:22.356Z,55.45
2019-01-24T09:37:51.491Z,58.08
2019-01-24T09:40:21.242Z,56.65
2019-01-24T09:42:50.651Z,56.13
2019-01-24T09:45:23.978Z,55.50
2019-01-24T09:47:54.484Z,55.90
2019-01-24T09:50:24.570Z,58.20
2019-01-24T09:52:53.840Z,65.52
2019-01-24T09:55:23.056Z,57.70
2019-01-24T09:57:52.271Z,58.98
2019-01-24T10:00:25.688Z,61.13
2019-01-24T10:02:54.888Z,54.10
2019-01-24T10:05:24.121Z,57.85
2019-01-24T10:07:53.324Z,56.00
2019-01-24T10:10:23.511Z,57.62
2019-01-24T10:12:52.854Z,53.80
2019-01-24T10:15:21.998Z,56.83
2019-01-24T10:17:52.146Z,57.93
2019-01-24T10:20:22.165Z,59.18
2019-01-24T10:22:51.324Z,58.60
2019-01-24T10:25:21.611Z,54.90
2019-01-24T10:27:50.657Z,57.50
2019-01-24T10:30:20.891Z,63.10
2019-01-24T10:32:51.051Z,61.08
2019-01-24T10:35:20.291Z,50.73
2019-01-24T10:37:49.509Z,56.63
2019-01-24T10:40:27.197Z,56.68
2019-01-24T10:42:57.593Z,54.10
2019-01-24T10:45:26.813Z,53.73
2019-01-24T10:47:56.029Z,54.50
2019-01-24T10:50:26.059Z,56.58
2019-01-24T10:52:55.261Z,56.58
2019-01-24T10:55:25.309Z,57.93
2019-01-24T10:57:55.222Z,54.95
2019-01-24T11:00:26.045Z,56.02
2019-01-24T11:02:55.236Z,78.40
2019-01-24T11:05:24.470Z,55.28
2019-01-24T11:07:53.672Z,53.83
2019-01-24T11:10:22.905Z,53.63
2019-01-24T11:12:52.109Z,55.63
2019-01-24T11:15:22.338Z,54.60
2019-01-24T11:17:51.530Z,56.13
2019-01-24T11:20:20.992Z,52.43
2019-01-24T11:22:50.356Z,57.38
2019-01-24T11:25:23.203Z,55.25
2019-01-24T11:27:52.457Z,53.73
2019-01-24T11:30:22.784Z,56.42
2019-01-24T11:32:52.051Z,55.35
2019-01-24T11:35:22.337Z,57.15
2019-01-24T11:37:51.470Z,56.15
2019-01-24T11:40:20.594Z,57.65
2019-01-24T11:42:49.774Z,54.83
2019-01-24T11:45:20.449Z,54.23
2019-01-24T11:47:49.680Z,54.85
2019-01-24T11:50:18.806Z,56.18
2019-01-24T11:52:47.962Z,54.27
2019-01-24T11:55:21.298Z,52.53
2019-01-24T11:57:50.414Z,53.15
2019-01-24T12:00:28.805Z,50.70
2019-01-24T12:02:57.834Z,53.58
2019-01-24T12:05:27.070Z,55.67
2019-01-24T12:07:56.164Z,49.67
2019-01-24T12:10:26.202Z,50.10
2019-01-24T12:12:55.358Z,51.00
2019-01-24T12:15:25.620Z,49.35
2019-01-24T12:17:55.856Z,48.90
2019-01-24T12:20:25.245Z,52.73
2019-01-24T12:22:54.458Z,49.40
2019-01-24T12:25:23.695Z,54.20
2019-01-24T12:27:52.904Z,50.98
2019-01-24T12:30:25.774Z,49.50
2019-01-24T12:32:55.048Z,52.90
2019-01-24T12:35:24.228Z,53.42
2019-01-24T12:37:53.279Z,52.08
2019-01-24T12:40:22.436Z,53.80
2019-01-24T12:42:51.538Z,50.65
2019-01-24T12:45:28.419Z,56.90
2019-01-24T12:47:58.532Z,51.15
2019-01-24T12:50:27.496Z,54.65
2019-01-24T12:52:56.660Z,58.58
2019-01-24T12:55:25.789Z,54.53
2019-01-24T12:57:54.852Z,54.65
2019-01-24T13:00:25.006Z,53.50
2019-01-24T13:02:54.110Z,53.20
2019-01-24T13:05:23.182Z,57.00
2019-01-24T13:07:52.272Z,55.85
2019-01-24T13:10:25.046Z,54.25
2019-01-24T13:12:54.128Z,53.60
2019-01-24T13:15:24.371Z,53.65
2019-01-24T13:17:53.391Z,52.17
2019-01-24T13:20:22.476Z,54.03
2019-01-24T13:22:51.674Z,54.45
2019-01-24T13:25:22.372Z,55.58
2019-01-24T13:27:51.385Z,53.17
2019-01-24T13:30:22.014Z,51.33
2019-01-24T13:32:51.188Z,53.20
2019-01-24T13:35:20.251Z,51.40
2019-01-24T13:37:49.256Z,50.60
2019-01-24T13:40:19.346Z,50.95
2019-01-24T13:42:48.337Z,52.98
2019-01-24T13:45:18.567Z,52.70
2019-01-24T13:47:47.597Z,52.33
2019-01-24T13:50:17.254Z,50.90
2019-01-24T13:52:46.345Z,53.63
2019-01-24T13:55:15.481Z,52.15
2019-01-24T13:57:44.505Z,50.88
2019-01-24T14:00:15.201Z,52.70
2019-01-24T14:02:44.654Z,55.17
2019-01-24T14:05:15.354Z,51.25
2019-01-24T14:07:44.365Z,54.30
2019-01-24T14:10:14.839Z,57.10
2019-01-24T14:12:43.823Z,52.75
2019-01-24T14:15:14.541Z,56.85
2019-01-24T14:17:43.526Z,53.70
2019-01-24T14:20:14.014Z,50.83
2019-01-24T14:22:43.048Z,51.65
2019-01-24T14:25:13.389Z,53.48
2019-01-24T14:27:42.486Z,51.35
2019-01-24T14:30:13.139Z,49.80
2019-01-24T14:32:42.232Z,50.08
2019-01-24T14:35:11.285Z,51.95
2019-01-24T14:37:40.465Z,48.13
2019-01-24T14:40:10.930Z,50.20
2019-01-24T14:42:39.980Z,50.60
2019-01-24T14:45:24.795Z,51.45
2019-01-24T14:47:53.798Z,49.05
2019-01-24T14:50:26.922Z,50.25
2019-01-24T14:52:55.977Z,51.73
2019-01-24T14:55:24.996Z,50.83
2019-01-24T14:57:54.068Z,52.35
2019-01-24T15:00:30.542Z,52.88
2019-01-24T15:02:59.543Z,49.75
2019-01-24T15:05:28.599Z,49.35
2019-01-24T15:07:57.612Z,52.45
2019-01-24T15:10:28.461Z,51.02
2019-01-24T15:12:57.658Z,51.08
2019-01-24T15:15:26.841Z,53.98
2019-01-24T15:17:55.977Z,54.25
2019-01-24T15:20:25.356Z,53.15
2019-01-24T15:22:55.104Z,55.08
2019-01-24T15:25:24.247Z,53.08
2019-01-24T15:27:54.515Z,56.40
2019-01-24T15:30:27.007Z,56.60
2019-01-24T15:32:56.031Z,52.62
2019-01-24T15:35:25.201Z,51.60
2019-01-24T15:37:54.900Z,51.88
2019-01-24T15:40:31.305Z,53.30
2019-01-24T15:43:00.321Z,54.90
2019-01-24T15:45:30.359Z,53.30
2019-01-24T15:47:59.603Z,53.65
2019-01-24T15:50:28.575Z,51.08
2019-01-24T15:52:57.616Z,51.35
2019-01-24T15:55:26.739Z,50.58
2019-01-24T15:57:55.898Z,52.33
2019-01-24T16:00:28.895Z,53.73
2019-01-24T16:02:58.065Z,54.05
2019-01-24T16:05:27.105Z,49.93
2019-01-24T16:08:01.674Z,50.40
2019-01-24T16:10:27.042Z,51.28
2019-01-24T16:12:59.151Z,50.10
2019-01-24T16:15:35.082Z,44.80
2019-01-24T16:18:05.347Z,46.70
2019-01-24T16:20:34.410Z,48.70
2019-01-24T16:23:03.424Z,51.63
2019-01-24T16:25:33.180Z,51.83
2019-01-24T16:28:03.418Z,48.87
2019-01-24T16:30:33.480Z,49.20
2019-01-24T16:33:02.897Z,49.85
2019-01-24T16:35:32.087Z,46.28
2019-01-24T16:38:08.999Z,46.98
2019-01-24T16:40:33.432Z,49.55
2019-01-24T16:43:02.571Z,44.38
2019-01-24T16:45:32.723Z,46.25
2019-01-24T16:48:03.470Z,39.90
2019-01-24T16:50:32.526Z,41.88
2019-01-24T16:53:01.550Z,39.63
2019-01-24T16:55:30.593Z,38.05
2019-01-24T16:57:59.639Z,39.30
2019-01-24T17:00:33.072Z,39.30
2019-01-24T17:03:02.073Z,40.95
2019-01-24T17:05:31.149Z,40.33
2019-01-24T17:08:00.318Z,40.03
2019-01-24T17:10:32.586Z,37.70
2019-01-24T17:13:03.499Z,37.28
2019-01-24T17:15:34.673Z,38.30
2019-01-24T17:18:04.294Z,37.38
2019-01-24T17:20:37.438Z,36.17
2019-01-24T17:23:07.900Z,37.88
2019-01-24T17:25:37.049Z,38.75
2019-01-24T17:28:07.215Z,38.78
2019-01-24T17:30:37.626Z,37.95
2019-01-24T17:33:09.069Z,38.45
2019-01-24T17:35:40.855Z,38.33
2019-01-24T17:38:10.529Z,36.42
2019-01-24T17:40:42.962Z,38.35
2019-01-24T17:43:12.690Z,39.63
2019-01-24T17:45:43.828Z,36.17
2019-01-24T17:48:15.778Z,36.28
2019-01-24T17:50:44.854Z,35.98
2019-01-24T17:53:13.901Z,37.63
2019-01-24T17:55:45.293Z,38.10
2019-01-24T17:58:14.495Z,38.40
2019-01-24T18:00:45.292Z,38.70
2019-01-24T18:03:14.341Z,37.98
2019-01-24T18:05:43.359Z,40.67
2019-01-24T18:08:13.390Z,43.08
2019-01-24T18:10:42.481Z,43.35
2019-01-24T18:13:11.447Z,46.55
2019-01-24T18:15:40.453Z,40.50
2019-01-24T18:18:12.807Z,37.98
2019-01-24T18:20:43.444Z,38.28
2019-01-24T18:23:12.452Z,36.53
2019-01-24T18:25:44.015Z,37.78
2019-01-24T18:28:13.338Z,43.02
2019-01-24T18:30:42.541Z,40.33
2019-01-24T18:33:11.722Z,41.90
2019-01-24T18:35:40.770Z,37.90
2019-01-24T18:38:10.382Z,38.40
2019-01-24T18:40:40.670Z,41.00
2019-01-24T18:43:11.695Z,38.67
2019-01-24T18:45:45.685Z,37.13
2019-01-24T18:48:15.071Z,41.18
2019-01-24T18:50:44.243Z,38.67
2019-01-24T18:53:14.407Z,38.63
2019-01-24T18:55:43.397Z,40.23
2019-01-24T18:58:12.410Z,37.13
2019-01-24T19:00:43.084Z,40.10
2019-01-24T19:03:12.137Z,37.38
2019-01-24T19:05:41.149Z,39.83
2019-01-24T19:08:10.746Z,39.25
2019-01-24T19:10:39.932Z,39.10
2019-01-24T19:13:08.965Z,37.25
2019-01-24T19:15:37.985Z,39.88
2019-01-24T19:18:07.596Z,37.85
2019-01-24T19:20:36.795Z,44.05
2019-01-24T19:23:05.730Z,40.83
2019-01-24T19:25:34.766Z,38.50
2019-01-24T19:28:04.485Z,39.08
2019-01-24T19:30:34.640Z,37.70
2019-01-24T19:33:03.717Z,40.17
2019-01-24T19:35:32.731Z,36.88
2019-01-24T19:38:01.744Z,40.08
2019-01-24T19:40:31.568Z,37.55
2019-01-24T19:43:00.634Z,38.53
2019-01-24T19:45:29.711Z,39.60
2019-01-24T19:47:58.805Z,44.27
2019-01-24T19:50:28.632Z,38.75
2019-01-24T19:52:58.820Z,37.38
2019-01-24T19:55:28.151Z,40.40
2019-01-24T19:57:57.242Z,41.25
2019-01-24T20:00:32.879Z,40.45
2019-01-24T20:03:01.881Z,41.00
2019-01-24T20:05:30.887Z,37.50
2019-01-24T20:07:59.916Z,41.85
2019-01-24T20:10:29.396Z,45.05
2019-01-24T20:12:59.553Z,42.13
2019-01-24T20:15:30.190Z,42.95
2019-01-24T20:17:59.273Z,40.90
2019-01-24T20:20:28.302Z,40.65
2019-01-24T20:22:57.328Z,40.23
2019-01-24T20:25:27.301Z,39.98
2019-01-24T20:27:56.407Z,40.03
2019-01-24T20:30:26.209Z,41.75
2019-01-24T20:32:55.311Z,42.33
2019-01-24T20:35:26.030Z,38.50
2019-01-24T20:37:55.011Z,39.90
2019-01-24T20:40:24.146Z,40.45
2019-01-24T20:42:53.133Z,42.83
2019-01-24T20:45:22.511Z,43.20
2019-01-24T20:47:51.626Z,42.48
2019-01-24T20:50:20.649Z,45.17
2019-01-24T20:52:49.755Z,42.83
2019-01-24T20:55:18.859Z,42.58
2019-01-24T20:57:47.867Z,44.58
2019-01-24T21:00:21.349Z,47.85
2019-01-24T21:02:50.399Z,43.75
2019-01-24T21:05:20.489Z,39.85
2019-01-24T21:07:49.603Z,45.70
2019-01-24T21:10:22.760Z,42.50
2019-01-24T21:12:51.798Z,44.03
2019-01-24T21:15:21.281Z,46.53
2019-01-24T21:17:50.265Z,42.90
2019-01-24T21:20:26.823Z,46.10
2019-01-24T21:22:55.808Z,46.70
2019-01-24T21:25:24.860Z,44.20
2019-01-24T21:27:53.867Z,41.85
2019-01-24T21:30:26.760Z,44.23
2019-01-24T21:32:55.811Z,39.53
2019-01-24T21:35:24.843Z,42.70
2019-01-24T21:37:53.831Z,45.08
2019-01-24T21:40:23.443Z,44.08
2019-01-24T21:42:52.424Z,40.58
2019-01-24T21:45:23.079Z,42.80
2019-01-24T21:47:52.091Z,40.52
2019-01-24T21:50:22.708Z,40.85
2019-01-24T21:52:51.762Z,42.23
2019-01-24T21:55:20.839Z,39.88
2019-01-24T21:57:49.923Z,40.90
2019-01-24T22:00:20.102Z,42.48
2019-01-24T22:02:49.159Z,44.45
2019-01-24T22:05:18.186Z,42.35
2019-01-24T22:07:47.185Z,40.45
2019-01-24T22:10:17.833Z,39.48
2019-01-24T22:12:46.843Z,40.23
2019-01-24T22:15:17.047Z,40.85
2019-01-24T22:17:46.076Z,37.08
2019-01-24T22:20:15.966Z,42.05
2019-01-24T22:22:44.978Z,40.35
2019-01-24T22:25:18.212Z,39.95
2019-01-24T22:27:47.262Z,39.48
2019-01-24T22:30:17.905Z,38.13
2019-01-24T22:32:46.952Z,40.30
2019-01-24T22:35:15.981Z,38.80
2019-01-24T22:37:45.004Z,40.48
2019-01-24T22:40:14.622Z,39.03
2019-01-24T22:42:43.600Z,37.28
2019-01-24T22:45:14.213Z,42.58
2019-01-24T22:47:43.222Z,40.85
2019-01-24T22:50:13.507Z,41.77
2019-01-24T22:52:42.887Z,41.02
2019-01-24T22:55:12.397Z,42.17
2019-01-24T22:57:41.383Z,42.60
2019-01-24T23:00:12.083Z,46.28
2019-01-24T23:02:42.018Z,41.83
2019-01-24T23:05:11.041Z,39.53
2019-01-24T23:07:40.050Z,40.15
2019-01-24T23:10:09.845Z,39.67
2019-01-24T23:12:38.860Z,41.08
2019-01-24T23:15:09.658Z,38.13
2019-01-24T23:17:38.681Z,40.63
2019-01-24T23:20:09.096Z,41.88
2019-01-24T23:22:38.112Z,40.80
2019-01-24T23:25:07.119Z,39.42
2019-01-24T23:27:36.162Z,39.42
2019-01-24T23:30:09.850Z,41.73
2019-01-24T23:32:38.894Z,40.67
2019-01-24T23:35:07.913Z,37.55
2019-01-24T23:37:36.920Z,41.05
2019-01-24T23:40:07.724Z,40.65
2019-01-24T23:42:36.871Z,40.40
2019-01-24T23:45:07.640Z,42.65
2019-01-24T23:47:36.679Z,36.58
2019-01-24T23:50:06.873Z,36.50
2019-01-24T23:52:35.982Z,42.62
2019-01-24T23:55:05.391Z,44.55
2019-01-24T23:57:34.407Z,41.70
